Startpagina
METAR-TAF:

METAR-TAF

Vliegvelden :

Vliegbasis Koksijde

Koksijde, België

breedte: 51-05N, lengte: 002-39E, hoogte: 4 m

Actueel weer

Dit bericht is 15 minuten geleden gemaakt, om 22:55 UTC
Wind 5 kt uit het noorden
Temperatuur 10°C
Vochtigheid 82%
Druk 1025 hPa
Zicht: 6000 m

METAR: EBFN 202255Z AUTO 36005KT 6000 NCD 10/07 Q1025 WHT

Tijdstip: 01:10 (23:10 UTC)

Verwachting

Dit bericht is 7 uur en het 29 minuten geleden gemaakt, om 15:41 UTC
Verwachting geldig van 20 om 19 UTC tot 21 om 07 UTC
Wind 10 kt uit het noorden
Zicht 10 km of meer
Onbewolkt
Tijdelijke
van 20 om 19 UTC tot 21 om 07 UTC
Zicht: 7000 m
Wijzigt naar
van 20 om 23 UTC tot 21 om 01 UTC

TAF: EBFN 201541Z 2019/2107 01010KT 9999 SKC TEMPO 2019/2107 7000 BECMG 2023/2101 0808KT

Waarnemingen en weersverwachtingen van meer dan 4000 vliegvelden (METAR en TAF).

De beschikbare stations zijn de gele en rode punten op de kaart.

Ga met uw muis naar het station om de naam te zien.

Klik dan om waarnemingen en weersverwachtingen te zien.

kaart wijzigen: klik op de groene knoppen met een zwart kruis om in te zoomen, op de groene knop met een streepje om uit te zoomen of op de groene pijlen voor aangrenzende kaarten.


METAR-TAF: